Time;durP1;ratioP1;P1;durP2;ratioP2;P2;SDS_P1;SDS_P2;PMS_P1;PMS_P2;Temp;Humidity;BMP_temperature;BMP_pressure;BME280_temperature;BME280_humidity;BME280_pressure;Samples;Min_cycle;Max_cycle;Signal;HPM_P1;HPM_P2
2024/04/18 00:00:15;;;;;;;3.00;1.63;;;;;;;6.81;72.07;98601.13;5455760;26;20014;-65
2024/04/18 00:02:43;;;;;;;0.63;0.63;;;;;;;6.83;72.61;98604.47;5455594;26;20035;-66
2024/04/18 00:05:35;;;;;;;0.70;0.70;;;;;;;6.73;72.32;98601.97;5453702;26;19999;-66
2024/04/18 00:08:04;;;;;;;0.30;0.30;;;;;;;6.67;71.99;98589.31;5455837;26;20456;-65
2024/04/18 00:10:35;;;;;;;0.38;0.38;;;;;;;6.68;72.70;98601.16;5455737;26;20005;-66
2024/04/18 00:13:03;;;;;;;0.30;0.30;;;;;;;6.68;72.23;98611.28;5455421;26;20418;-66
2024/04/18 00:15:54;;;;;;;0.35;0.35;;;;;;;6.68;72.71;98608.75;5454450;26;20003;-66
2024/04/18 00:18:42;;;;;;;0.68;0.68;;;;;;;6.65;72.79;98610.44;5453491;26;19994;-66
2024/04/18 00:21:24;;;;;;;0.35;0.35;;;;;;;6.64;72.55;98614.69;5455578;26;20067;-65
2024/04/18 00:23:55;;;;;;;0.68;0.68;;;;;;;6.69;72.46;98610.41;5453622;26;20465;-65
2024/04/18 00:26:37;;;;;;;0.40;0.40;;;;;;;6.72;73.00;98612.97;5455541;26;20010;-65
2024/04/18 00:29:05;;;;;;;0.40;0.40;;;;;;;6.67;72.68;98609.59;5455261;26;20014;-65
2024/04/18 00:31:38;;;;;;;0.68;0.68;;;;;;;6.65;72.78;98611.28;5455049;26;20009;-66
2024/04/18 00:34:06;;;;;;;0.80;0.80;;;;;;;6.71;72.71;98606.22;5455093;26;20481;-66
2024/04/18 00:36:50;;;;;;;0.85;0.75;;;;;;;6.74;72.38;98601.13;5455128;26;19999;-66
2024/04/18 00:39:23;;;;;;;;;;;;;;;6.67;72.05;98603.69;5455982;26;19999;-65
2024/04/18 00:42:01;;;;;;;0.43;0.43;;;;;;;6.66;72.44;98602.84;5453202;26;19931;-66
2024/04/18 00:44:29;;;;;;;0.30;0.30;;;;;;;6.69;72.59;98618.03;5454983;26;20010;-66
2024/04/18 00:47:12;;;;;;;1.60;0.97;;;;;;;6.74;72.77;98610.44;5455186;26;20075;-66
2024/04/18 00:50:01;;;;;;;1.92;1.60;;;;;;;6.72;72.02;98612.97;5452849;26;20706;-66
2024/04/18 00:52:44;;;;;;;0.50;0.50;;;;;;;6.73;72.67;98613.81;5455237;26;20520;-66
2024/04/18 00:55:24;;;;;;;0.98;0.65;;;;;;;6.72;72.38;98614.66;5454700;26;20453;-65
2024/04/18 00:58:12;;;;;;;0.90;0.68;;;;;;;6.69;72.30;98612.97;5454648;26;20521;-65
2024/04/18 01:00:41;;;;;;;0.63;0.57;;;;;;;6.71;72.42;98613.81;5454835;26;20007;-66
2024/04/18 01:03:23;;;;;;;1.20;1.10;;;;;;;6.67;72.25;98594.38;5454694;26;20009;-66
2024/04/18 01:06:06;;;;;;;0.32;0.32;;;;;;;6.73;72.48;98604.53;5454594;26;20076;-65
2024/04/18 01:08:51;;;;;;;1.17;1.10;;;;;;;6.73;72.06;98606.22;5454621;26;20007;-66
2024/04/18 01:11:31;;;;;;;0.52;0.52;;;;;;;6.56;72.46;98577.53;5454696;26;20014;-65
2024/04/18 01:14:09;;;;;;;2.35;1.98;;;;;;;6.66;72.00;98602.84;5454462;26;20014;-66
2024/04/18 01:16:48;;;;;;;0.50;0.50;;;;;;;6.64;71.96;98601.16;5454489;26;20433;-66
2024/04/18 01:19:21;;;;;;;0.70;0.70;;;;;;;6.62;72.21;98607.94;5454715;26;20003;-66
2024/04/18 01:21:50;;;;;;;0.70;0.70;;;;;;;6.65;72.24;98608.75;5454744;26;20006;-65
2024/04/18 01:24:23;;;;;;;1.45;0.95;;;;;;;6.59;72.45;98595.25;5452384;26;20035;-65
2024/04/18 01:26:54;;;;;;;0.80;0.80;;;;;;;6.55;72.39;98596.13;5453664;26;20043;-66
2024/04/18 01:29:44;;;;;;;2.20;1.45;;;;;;;6.56;72.51;98606.25;5454385;26;20014;-66
2024/04/18 01:32:25;;;;;;;0.28;0.28;;;;;;;6.59;72.96;98603.72;5452273;26;20010;-66
2024/04/18 01:34:56;;;;;;;0.35;0.35;;;;;;;6.58;72.77;98602.00;5452477;26;20009;-65
2024/04/18 01:37:46;;;;;;;0.50;0.50;;;;;;;6.58;72.79;98604.56;5452620;26;19997;-65
2024/04/18 01:40:17;;;;;;;4.38;0.90;;;;;;;6.54;72.59;98602.88;5453964;26;20010;-66
2024/04/18 01:43:08;;;;;;;0.80;0.73;;;;;;;6.53;72.71;98611.31;5454153;26;20009;-66
2024/04/18 01:45:59;;;;;;;3.30;2.28;;;;;;;6.49;72.81;98598.66;5453951;26;20019;-66
2024/04/18 01:48:27;;;;;;;2.08;1.63;;;;;;;6.57;72.71;98613.03;5454139;26;20488;-66
2024/04/18 01:51:08;;;;;;;0.50;0.50;;;;;;;6.59;73.13;98615.53;5454289;26;20053;-66
2024/04/18 01:53:36;;;;;;;1.05;1.02;;;;;;;6.49;73.09;98604.56;5453896;26;20093;-66
2024/04/18 01:56:20;;;;;;;4.07;1.48;;;;;;;6.53;72.55;98618.91;5453897;26;20035;-66
2024/04/18 01:58:50;;;;;;;0.70;0.70;;;;;;;6.52;72.65;98624.84;5452071;26;20027;-65
2024/04/18 02:01:27;;;;;;;0.85;0.80;;;;;;;6.13;73.04;98546.38;5453964;26;19999;-65
2024/04/18 02:03:55;;;;;;;0.70;0.70;;;;;;;6.49;73.19;98609.66;5454397;26;20437;-65
2024/04/18 02:06:26;;;;;;;0.63;0.63;;;;;;;6.52;73.04;98609.66;5453803;26;19999;-65
2024/04/18 02:08:54;;;;;;;0.50;0.50;;;;;;;6.54;72.86;98622.31;5453969;26;20011;-64
2024/04/18 02:11:36;;;;;;;1.90;1.80;;;;;;;6.49;73.24;98618.94;5451773;26;20071;-65
2024/04/18 02:14:13;;;;;;;2.05;1.88;;;;;;;6.42;73.23;98615.56;5453494;26;20002;-66
2024/04/18 02:16:43;;;;;;;5.63;1.65;;;;;;;6.45;72.84;98623.19;5453592;26;20549;-66
2024/04/18 02:19:26;;;;;;;0.60;0.60;;;;;;;6.45;72.98;98620.66;5453569;26;20450;-66
2024/04/18 02:22:00;;;;;;;0.52;0.52;;;;;;;6.46;73.40;98619.78;5453765;26;20010;-66
2024/04/18 02:24:37;;;;;;;1.00;1.00;;;;;;;6.45;73.41;98622.31;5451758;26;19999;-66
2024/04/18 02:27:08;;;;;;;0.73;0.73;;;;;;;6.43;73.27;98624.84;5453376;26;20017;-65
2024/04/18 02:29:38;;;;;;;0.82;0.80;;;;;;;6.42;73.16;98625.72;5453632;26;20119;-64
2024/04/18 02:32:09;;;;;;;3.25;1.70;;;;;;;6.38;73.18;98624.00;5453204;26;20006;-65
2024/04/18 02:34:37;;;;;;;1.13;1.08;;;;;;;6.47;72.73;98628.22;5453219;26;20075;-64
2024/04/18 02:37:18;;;;;;;0.75;0.75;;;;;;;6.46;72.76;98629.91;5452959;26;20021;-65
2024/04/18 02:39:49;;;;;;;1.63;1.52;;;;;;;6.43;72.43;98629.91;5453555;26;20093;-66
2024/04/18 02:42:26;;;;;;;0.70;0.70;;;;;;;6.41;72.50;98630.75;5456758;26;19998;-65
2024/04/18 02:45:03;;;;;;;0.35;0.35;;;;;;;6.43;72.19;98624.84;5455292;26;20470;-66
2024/04/18 02:47:41;;;;;;;1.17;1.08;;;;;;;6.43;72.13;98629.91;5456826;26;20003;-66
2024/04/18 02:50:32;;;;;;;2.75;1.85;;;;;;;6.41;72.01;98621.47;5456419;26;20009;-66
2024/04/18 02:53:00;;;;;;;1.30;1.20;;;;;;;6.44;72.16;98630.75;5456497;26;20071;-66
2024/04/18 02:55:30;;;;;;;1.05;1.00;;;;;;;6.43;71.71;98624.03;5454661;26;20011;-66
2024/04/18 02:57:58;;;;;;;1.77;1.55;;;;;;;6.37;71.90;98629.94;5456930;26;20489;-66
2024/04/18 03:00:31;;;;;;;1.23;1.13;;;;;;;6.33;72.16;98628.25;5456357;26;20067;-65
2024/04/18 03:03:10;;;;;;;0.60;0.60;;;;;;;6.34;71.96;98629.94;5456660;26;20005;-65
2024/04/18 03:05:52;;;;;;;2.30;1.55;;;;;;;6.31;71.92;98627.38;5456417;26;20015;-65
2024/04/18 03:08:24;;;;;;;0.55;0.55;;;;;;;6.30;71.69;98628.25;5456530;26;20072;-65
2024/04/18 03:10:55;;;;;;;0.75;0.65;;;;;;;6.17;72.05;98611.38;5456512;26;20014;-65
2024/04/18 03:13:36;;;;;;;0.75;0.75;;;;;;;6.35;71.68;98631.63;5456414;26;20010;-65
2024/04/18 03:16:29;;;;;;;0.88;0.85;;;;;;;6.37;71.77;98635.00;5454171;26;20009;-66
2024/04/18 03:19:11;;;;;;;0.82;0.82;;;;;;;6.35;71.96;98636.69;5456186;26;20048;-66
2024/04/18 03:21:54;;;;;;;0.88;0.88;;;;;;;6.34;71.61;98637.53;5456099;26;20341;-65
2024/04/18 03:24:23;;;;;;;0.80;0.75;;;;;;;6.38;71.50;98635.84;5456074;26;20010;-65
2024/04/18 03:26:54;;;;;;;12.00;2.10;;;;;;;6.35;71.48;98636.69;5454448;26;20010;-65
2024/04/18 03:29:23;;;;;;;0.85;0.85;;;;;;;6.40;70.94;98640.06;5456248;26;20014;-66
2024/04/18 03:32:02;;;;;;;0.90;0.90;;;;;;;6.36;70.99;98643.44;5455785;26;20002;-67
2024/04/18 03:34:41;;;;;;;2.78;1.85;;;;;;;6.36;71.08;98647.69;5456055;26;20075;-66
2024/04/18 03:37:11;;;;;;;1.00;0.90;;;;;;;6.33;70.88;98642.59;5455612;26;20049;-66
2024/04/18 03:39:42;;;;;;;0.80;0.75;;;;;;;6.28;71.22;98655.28;5455721;26;19999;-65
2024/04/18 03:42:14;;;;;;;0.88;0.82;;;;;;;6.31;70.78;98655.25;5455827;26;19999;-68
2024/04/18 03:44:57;;;;;;;0.40;0.40;;;;;;;6.23;71.16;98644.31;5455838;26;20025;-65
2024/04/18 03:47:32;;;;;;;0.80;0.80;;;;;;;6.30;71.00;98658.66;5455671;26;20368;-65
2024/04/18 03:50:11;;;;;;;1.58;1.42;;;;;;;6.31;70.80;98656.97;5454609;26;20014;-67
2024/04/18 03:52:42;;;;;;;1.05;0.82;;;;;;;6.34;71.27;98665.41;5453740;26;20093;-65
2024/04/18 03:55:23;;;;;;;1.02;0.95;;;;;;;6.34;71.22;98667.09;5455926;26;20081;-65
2024/04/18 03:57:51;;;;;;;3.33;1.85;;;;;;;6.36;70.77;98671.31;5455440;26;20314;-65
2024/04/18 04:00:32;;;;;;;3.38;2.92;;;;;;;6.21;71.03;98647.69;5453780;26;20468;-66
2024/04/18 04:03:03;;;;;;;4.68;3.35;;;;;;;6.36;71.09;98673.84;5455855;26;20038;-65
2024/04/18 04:05:33;;;;;;;4.22;2.97;;;;;;;6.37;71.26;98677.22;5455527;26;20040;-65
2024/04/18 04:08:01;;;;;;;2.10;1.95;;;;;;;6.36;71.15;98683.97;5455659;26;20017;-66
2024/04/18 04:10:45;;;;;;;2.00;1.83;;;;;;;6.31;71.38;98675.53;5455546;26;20075;-66
2024/04/18 04:13:12;;;;;;;2.22;2.05;;;;;;;6.38;71.49;98687.34;5453856;26;20049;-65
2024/04/18 04:15:43;;;;;;;0.88;0.80;;;;;;;6.32;71.61;98684.84;5455687;26;20010;-66
2024/04/18 04:18:34;;;;;;;1.10;1.00;;;;;;;6.40;71.54;98695.81;5455392;26;20002;-66
2024/04/18 04:21:16;;;;;;;3.50;1.08;;;;;;;6.31;71.65;98685.66;5455199;26;20481;-65
2024/04/18 04:23:44;;;;;;;3.28;2.58;;;;;;;6.36;71.47;98699.19;5455217;26;20017;-66
2024/04/18 04:26:15;;;;;;;3.40;2.65;;;;;;;6.38;71.73;98700.03;5455085;26;20010;-66
2024/04/18 04:28:43;;;;;;;1.60;1.50;;;;;;;6.41;71.52;98707.63;5455181;26;19999;-65
2024/04/18 04:31:13;;;;;;;3.13;1.27;;;;;;;6.42;71.74;98706.78;5453619;26;20068;-65
2024/04/18 04:33:44;;;;;;;1.42;1.33;;;;;;;6.07;71.89;98635.00;5455139;26;20026;-65
2024/04/18 04:36:14;;;;;;;1.65;1.52;;;;;;;6.50;71.85;98710.16;5454752;26;20075;-65
2024/04/18 04:38:42;;;;;;;2.03;1.67;;;;;;;6.42;71.43;98689.06;5453762;26;20406;-65
2024/04/18 04:41:13;;;;;;;1.55;1.10;;;;;;;6.57;71.85;98711.88;5454783;26;20011;-65
2024/04/18 04:43:42;;;;;;;2.10;1.85;;;;;;;6.64;71.49;98716.09;5455114;26;20010;-65
2024/04/18 04:46:16;;;;;;;2.83;1.30;;;;;;;6.69;71.72;98714.38;5454980;26;20039;-65
2024/04/18 04:48:47;;;;;;;2.42;1.25;;;;;;;6.73;71.87;98721.16;5455320;26;20433;-65
2024/04/18 04:51:18;;;;;;;2.20;1.83;;;;;;;6.80;71.56;98718.59;5454921;26;20002;-65
2024/04/18 04:54:03;;;;;;;1.30;1.20;;;;;;;6.86;71.59;98721.97;5454702;26;20007;-66
2024/04/18 04:56:45;;;;;;;1.38;1.13;;;;;;;6.91;71.36;98720.25;5454727;26;19999;-66
2024/04/18 04:59:19;;;;;;;1.98;1.83;;;;;;;6.98;71.20;98721.94;5454738;26;20043;-64
2024/04/18 05:01:52;;;;;;;2.55;2.45;;;;;;;7.05;71.17;98732.94;5454898;26;20009;-66
2024/04/18 05:04:43;;;;;;;0.93;0.93;;;;;;;7.13;71.03;98736.28;5454986;26;20014;-66
2024/04/18 05:07:32;;;;;;;2.97;2.45;;;;;;;7.23;70.59;98735.41;5454711;26;20070;-66
2024/04/18 05:10:10;;;;;;;1.42;1.33;;;;;;;7.29;70.31;98743.03;5452867;26;20071;-67
2024/04/18 05:12:41;;;;;;;2.33;1.35;;;;;;;7.36;69.99;98739.63;5454553;26;19998;-66
2024/04/18 05:15:29;;;;;;;1.75;1.38;;;;;;;7.41;69.92;98737.91;5454299;26;20031;-67
2024/04/18 05:18:02;;;;;;;1.20;1.10;;;;;;;7.52;69.57;98740.38;5454422;26;19999;-65
2024/04/18 05:20:33;;;;;;;1.80;1.55;;;;;;;7.60;69.30;98749.69;5454292;26;19999;-65
2024/04/18 05:23:04;;;;;;;1.48;1.38;;;;;;;7.74;68.75;98755.53;5454673;26;20131;-66
2024/04/18 05:25:32;;;;;;;3.75;2.35;;;;;;;7.83;68.36;98758.03;5454681;26;20335;-66
2024/04/18 05:28:19;;;;;;;2.42;1.65;;;;;;;7.94;68.00;98761.34;5454538;26;20101;-66
2024/04/18 05:33:29;;;;;;;2.30;1.57;;;;;;;8.04;67.49;98757.91;5454150;26;20027;-65
2024/04/18 05:36:03;;;;;;;9.57;1.83;;;;;;;8.11;67.38;98757.03;5454365;26;20010;-66
2024/04/18 05:38:34;;;;;;;2.20;2.05;;;;;;;8.19;67.01;98766.31;5454440;26;20031;-66
2024/04/18 05:41:04;;;;;;;2.75;1.38;;;;;;;8.20;67.06;98753.59;5452267;26;20010;-65
2024/04/18 05:43:46;;;;;;;1.15;1.05;;;;;;;8.36;66.65;98762.84;5454313;26;20003;-66
2024/04/18 05:46:14;;;;;;;1.42;1.33;;;;;;;8.45;66.54;98767.00;5454107;26;20007;-66
2024/04/18 05:48:44;;;;;;;0.90;0.90;;;;;;;8.51;66.21;98756.81;5453553;26;20347;-66
2024/04/18 08:07:28;;;;;;;0.60;0.60;;;;;;;11.37;48.73;98846.66;5545300;25;20395;-65
2024/04/18 08:10:03;;;;;;;1.03;0.97;;;;;;;11.36;47.66;98844.16;5513294;25;19997;-68
2024/04/18 08:12:40;;;;;;;0.60;0.60;;;;;;;11.45;47.69;98838.88;5513790;25;20281;-69
2024/04/18 08:15:17;;;;;;;1.00;0.88;;;;;;;11.47;47.52;98837.13;5546418;25;20001;-66
2024/04/18 08:17:56;;;;;;;0.90;0.88;;;;;;;11.39;47.55;98833.91;5546180;25;20012;-65
2024/04/18 08:20:27;;;;;;;1.02;0.70;;;;;;;11.54;47.00;98836.16;5545874;25;20005;-67
2024/04/18 08:23:00;;;;;;;0.50;0.50;;;;;;;11.70;46.77;98829.94;5546313;25;20069;-69
2024/04/18 08:25:31;;;;;;;0.93;0.93;;;;;;;11.65;46.46;98826.59;5546172;25;20025;-69
2024/04/18 08:28:03;;;;;;;0.45;0.45;;;;;;;11.58;46.49;98835.25;5546630;25;19997;-65
2024/04/18 08:30:34;;;;;;;3.13;0.90;;;;;;;11.60;45.45;98841.16;5513443;25;20005;-65
2024/04/18 08:33:05;;;;;;;0.60;0.60;;;;;;;11.68;45.16;98841.91;5546227;25;20011;-69
2024/04/18 08:35:36;;;;;;;0.70;0.70;;;;;;;11.90;45.26;98838.06;5546043;25;20001;-68
2024/04/18 08:38:11;;;;;;;0.50;0.50;;;;;;;12.04;43.90;98836.06;5546000;25;20562;-65
2024/04/18 08:40:44;;;;;;;0.70;0.70;;;;;;;12.21;44.21;98834.88;5545907;25;20009;-68
2024/04/18 08:43:15;;;;;;;1.35;1.25;;;;;;;12.32;43.66;98831.22;5546028;25;19997;-68
2024/04/18 08:45:47;;;;;;;0.43;0.43;;;;;;;11.83;44.02;98833.94;5546580;25;20001;-66
2024/04/18 08:48:20;;;;;;;0.50;0.50;;;;;;;11.68;44.75;98831.69;5545673;25;20001;-69
2024/04/18 08:50:51;;;;;;;2.00;1.67;;;;;;;11.95;44.80;98831.13;5545743;25;20001;-68
2024/04/18 08:53:24;;;;;;;0.85;0.80;;;;;;;12.31;45.56;98824.41;5545924;25;20016;-68
2024/04/18 08:55:59;;;;;;;0.43;0.43;;;;;;;12.29;45.33;98835.56;5545580;25;19997;-68
2024/04/18 08:58:31;;;;;;;0.73;0.70;;;;;;;12.30;46.11;98837.25;5546119;25;20498;-70
2024/04/18 09:01:02;;;;;;;1.25;1.15;;;;;;;12.14;45.57;98846.94;5545862;25;20128;-69
2024/04/18 09:03:32;;;;;;;0.65;0.65;;;;;;;12.03;45.82;98852.28;5545688;25;20009;-70
2024/04/18 09:06:05;;;;;;;0.65;0.65;;;;;;;12.02;45.35;98853.16;5545433;25;20012;-67
2024/04/18 09:08:41;;;;;;;0.60;0.60;;;;;;;11.94;45.66;98859.31;5545559;25;20001;-69
2024/04/18 09:11:12;;;;;;;0.77;0.77;;;;;;;11.81;45.12;98797.34;5545958;25;19997;-67
2024/04/18 09:13:43;;;;;;;1.48;0.98;;;;;;;12.42;44.43;98836.97;5545239;25;20346;-66
2024/04/18 09:16:13;;;;;;;0.50;0.50;;;;;;;12.52;44.14;98839.31;5545490;25;20350;-68
2024/04/18 09:18:44;;;;;;;1.40;1.08;;;;;;;12.65;43.71;98850.09;5528939;25;20050;-68
2024/04/18 09:21:15;;;;;;;0.68;0.68;;;;;;;12.85;43.23;98852.22;5529831;26;20464;-64
2024/04/18 09:23:49;;;;;;;0.50;0.50;;;;;;;12.96;42.76;98845.97;5529325;26;20456;-66
2024/04/18 09:26:20;;;;;;;0.77;0.75;;;;;;;13.01;42.38;98841.56;5529409;26;20017;-66
2024/04/18 09:28:51;;;;;;;0.50;0.50;;;;;;;12.64;41.23;98825.41;5529402;25;20073;-66
2024/04/18 09:31:22;;;;;;;0.98;0.65;;;;;;;12.42;41.65;98844.66;5496863;26;20037;-69
2024/04/18 09:34:06;;;;;;;0.80;0.70;;;;;;;12.48;42.43;98822.34;5529358;26;20065;-69
2024/04/18 09:36:39;;;;;;;0.98;0.90;;;;;;;12.86;43.81;98841.13;5529496;25;20013;-71
2024/04/18 09:39:16;;;;;;;0.98;0.98;;;;;;;12.88;44.85;98835.09;5529344;25;20452;-68
2024/04/18 09:41:56;;;;;;;1.67;0.93;;;;;;;12.98;44.61;98851.88;5496472;26;20050;-68
2024/04/18 09:44:31;;;;;;;0.57;0.57;;;;;;;13.37;44.39;98843.28;5529231;25;19997;-70
2024/04/18 09:47:03;;;;;;;0.40;0.40;;;;;;;13.54;43.94;98854.81;5527689;26;20001;-70
2024/04/18 09:49:34;;;;;;;1.73;1.23;;;;;;;13.27;44.01;98839.25;5529179;26;20427;-70
2024/04/18 09:52:06;;;;;;;0.60;0.60;;;;;;;13.24;44.01;98862.41;5529437;25;20012;-68
2024/04/18 09:54:41;;;;;;;0.60;0.60;;;;;;;13.19;43.90;98859.13;5528763;25;20013;-69
2024/04/18 09:57:13;;;;;;;0.60;0.60;;;;;;;13.37;43.87;98858.66;5528892;25;20009;-69
2024/04/18 09:59:44;;;;;;;1.10;0.75;;;;;;;13.69;44.38;98860.38;5529048;25;20001;-69
2024/04/18 10:02:15;;;;;;;1.08;0.80;;;;;;;13.89;44.12;98859.84;5528933;26;20002;-69
2024/04/18 10:04:47;;;;;;;1.02;0.93;;;;;;;14.02;43.30;98853.50;5528755;25;19997;-68
2024/04/18 10:07:21;;;;;;;0.70;0.70;;;;;;;14.11;42.16;98853.22;5527277;26;20042;-69
2024/04/18 10:09:57;;;;;;;0.50;0.50;;;;;;;14.10;42.29;98852.41;5528539;26;20068;-68
2024/04/18 10:12:31;;;;;;;0.85;0.85;;;;;;;14.12;42.04;98844.66;5528830;25;20005;-69
2024/04/18 10:15:02;;;;;;;0.55;0.55;;;;;;;14.30;42.01;98859.56;5528463;26;20339;-69
2024/04/18 10:17:34;;;;;;;1.08;0.98;;;;;;;14.28;42.30;98840.75;5528528;25;20409;-68
2024/04/18 10:20:09;;;;;;;0.57;0.57;;;;;;;14.48;42.59;98843.63;5528461;25;20008;-69
2024/04/18 10:22:40;;;;;;;0.60;0.60;;;;;;;14.70;42.82;98849.78;5528414;25;20480;-69
2024/04/18 10:25:25;;;;;;;1.15;0.77;;;;;;;14.74;41.93;98851.38;5528832;26;20002;-69
2024/04/18 10:27:56;;;;;;;1.02;0.88;;;;;;;14.67;41.41;98854.19;5526732;26;20529;-69
2024/04/18 10:30:28;;;;;;;0.40;0.40;;;;;;;14.27;40.29;98840.81;5524304;26;20008;-69
2024/04/18 10:32:58;;;;;;;4.95;2.50;;;;;;;14.49;40.84;98847.03;5525302;26;20076;-68
2024/04/18 10:35:29;;;;;;;0.68;0.68;;;;;;;14.72;41.68;98848.03;5527868;25;20009;-70
2024/04/18 10:38:02;;;;;;;0.70;0.70;;;;;;;14.80;41.27;98839.22;5528335;26;19998;-69
2024/04/18 10:40:59;;;;;;;0.55;0.55;;;;;;;14.49;40.96;98791.38;5528109;26;20011;-70
2024/04/18 10:43:30;;;;;;;1.65;1.10;;;;;;;14.60;41.66;98852.69;5526970;26;20009;-69
2024/04/18 10:46:06;;;;;;;1.10;0.85;;;;;;;14.01;42.23;98862.09;5528686;26;20002;-69
2024/04/18 10:48:38;;;;;;;0.50;0.50;;;;;;;13.87;43.30;98864.16;5528674;25;20440;-69
2024/04/18 10:51:09;;;;;;;0.63;0.60;;;;;;;13.77;44.02;98853.31;5528371;25;20008;-68
2024/04/18 10:53:41;;;;;;;0.60;0.60;;;;;;;13.75;45.23;98860.22;5528005;26;20008;-69
2024/04/18 10:56:15;;;;;;;0.73;0.73;;;;;;;13.61;44.74;98857.16;5528036;26;19999;-69
2024/04/18 10:58:46;;;;;;;0.52;0.52;;;;;;;13.78;44.13;98856.72;5528295;25;19998;-68
2024/04/18 11:01:20;;;;;;;0.65;0.65;;;;;;;14.18;43.96;98865.00;5526393;26;20385;-67
2024/04/18 11:03:54;;;;;;;0.63;0.63;;;;;;;14.21;43.20;98859.78;5528242;25;20017;-68
2024/04/18 11:06:25;;;;;;;0.95;0.95;;;;;;;14.39;42.61;98856.75;5528418;25;20012;-68
2024/04/18 11:08:55;;;;;;;0.65;0.65;;;;;;;14.56;41.59;98857.09;5527958;26;20056;-68
2024/04/18 11:11:32;;;;;;;0.50;0.50;;;;;;;14.89;41.17;98847.50;5527745;26;20474;-67
2024/04/18 11:14:05;;;;;;;0.47;0.47;;;;;;;14.73;40.64;98849.69;5527988;26;20512;-69
2024/04/18 11:16:41;;;;;;;0.50;0.50;;;;;;;14.96;41.37;98853.28;5527804;26;19998;-68
2024/04/18 11:19:12;;;;;;;0.52;0.52;;;;;;;15.08;41.20;98852.88;5528186;25;20460;-69
2024/04/18 11:21:43;;;;;;;0.65;0.65;;;;;;;15.07;40.22;98853.78;5527660;26;20068;-67
2024/04/18 11:24:14;;;;;;;0.60;0.60;;;;;;;14.73;39.90;98862.53;5525806;26;19997;-69
2024/04/18 11:26:51;;;;;;;1.55;0.70;;;;;;;14.96;40.35;98860.97;5527670;26;19998;-69
2024/04/18 11:29:27;;;;;;;0.40;0.40;;;;;;;14.93;37.84;98863.63;5527869;26;20005;-69
2024/04/18 11:32:06;;;;;;;0.50;0.50;;;;;;;15.05;37.19;98860.69;5527530;26;20394;-67
2024/04/18 11:34:38;;;;;;;0.47;0.47;;;;;;;14.56;37.06;98867.34;5528036;25;20021;-69
2024/04/18 11:37:09;;;;;;;0.40;0.40;;;;;;;14.67;37.28;98869.59;5527787;25;20009;-71
2024/04/18 11:39:42;;;;;;;0.55;0.55;;;;;;;14.89;37.67;98880.03;5525470;26;19989;-68
2024/04/18 11:42:15;;;;;;;0.60;0.60;;;;;;;14.65;37.99;98872.22;5525371;26;20016;-68
2024/04/18 11:44:46;;;;;;;0.40;0.40;;;;;;;14.54;39.24;98879.38;5528090;26;20094;-67
2024/04/18 11:47:16;;;;;;;0.60;0.60;;;;;;;14.29;40.36;98893.78;5527183;25;20001;-69
2024/04/18 11:49:47;;;;;;;2.08;1.52;;;;;;;14.18;41.27;98888.09;5527706;25;19998;-69
2024/04/18 11:52:18;;;;;;;0.47;0.47;;;;;;;13.76;41.00;98835.41;5527407;26;20011;-71
2024/04/18 11:55:01;;;;;;;0.50;0.50;;;;;;;14.25;41.06;98891.34;5527092;25;20006;-70
2024/04/18 11:57:46;;;;;;;1.42;0.70;;;;;;;13.97;40.31;98834.81;5527059;26;20005;-69
2024/04/18 12:00:36;;;;;;;0.40;0.40;;;;;;;14.17;40.69;98903.56;5525142;26;20397;-68
2024/04/18 12:03:10;;;;;;;0.68;0.68;;;;;;;13.78;42.05;98895.19;5525162;26;20005;-68
2024/04/18 12:05:55;;;;;;;0.50;0.50;;;;;;;13.67;42.69;98904.91;5525160;26;20451;-68
2024/04/18 12:08:26;;;;;;;0.50;0.50;;;;;;;13.64;42.84;98907.53;5526567;26;20006;-70
2024/04/18 12:10:56;;;;;;;0.65;0.65;;;;;;;13.41;42.55;98903.81;5526765;25;20030;-67
2024/04/18 12:13:41;;;;;;;0.82;0.80;;;;;;;13.30;42.94;98900.69;5526754;25;20007;-69
2024/04/18 12:16:25;;;;;;;0.65;0.60;;;;;;;13.38;43.50;98901.34;5526627;25;20013;-70
2024/04/18 12:19:11;;;;;;;0.40;0.40;;;;;;;13.37;43.87;98909.91;5526671;26;20069;-68
2024/04/18 12:21:42;;;;;;;0.50;0.50;;;;;;;13.39;43.61;98897.88;5526506;26;20456;-68
2024/04/18 12:24:13;;;;;;;0.77;0.77;;;;;;;13.23;43.10;98904.28;5526946;26;19998;-69
2024/04/18 12:26:45;;;;;;;0.68;0.68;;;;;;;13.14;43.74;98909.63;5527013;25;20034;-69
2024/04/18 12:29:21;;;;;;;0.57;0.57;;;;;;;13.21;43.58;98910.31;5526574;25;20005;-68
2024/04/18 12:31:59;;;;;;;1.15;0.88;;;;;;;13.16;44.36;98866.03;5526384;25;20001;-68
2024/04/18 12:34:31;;;;;;;0.60;0.60;;;;;;;13.51;43.80;98901.88;5526465;25;19997;-68
2024/04/18 12:37:07;;;;;;;0.40;0.40;;;;;;;13.36;41.70;98900.53;5526823;25;20006;-68
2024/04/18 12:39:38;;;;;;;0.50;0.50;;;;;;;13.22;41.98;98879.53;5526483;25;20326;-68
2024/04/18 12:42:29;;;;;;;0.30;0.30;;;;;;;13.38;41.33;98905.63;5525405;25;19998;-68
2024/04/18 12:45:02;;;;;;;0.60;0.60;;;;;;;13.27;42.46;98910.16;5525148;26;20012;-68
2024/04/18 12:47:33;;;;;;;0.52;0.52;;;;;;;13.27;43.25;98908.44;5526154;25;20068;-67
2024/04/18 12:50:21;;;;;;;0.47;0.47;;;;;;;13.14;42.82;98907.06;5526113;26;20005;-68
2024/04/18 12:52:52;;;;;;;0.47;0.47;;;;;;;13.26;42.72;98911.91;5527989;26;20009;-68
2024/04/18 12:55:24;;;;;;;0.80;0.80;;;;;;;13.31;43.01;98922.03;5530159;26;20033;-68
2024/04/18 12:57:55;;;;;;;0.50;0.50;;;;;;;13.33;43.00;98921.13;5528491;26;20034;-68
2024/04/18 13:00:38;;;;;;;0.88;0.70;;;;;;;13.24;42.80;98923.06;5529712;25;20069;-69
2024/04/18 13:03:10;;;;;;;0.50;0.50;;;;;;;13.19;42.80;98915.50;5529464;26;20001;-70
2024/04/18 13:05:41;;;;;;;0.40;0.40;;;;;;;13.38;42.51;98921.84;5529209;26;19997;-67
2024/04/18 13:08:11;;;;;;;0.60;0.60;;;;;;;13.75;42.04;98910.69;5528184;26;20439;-68
2024/04/18 13:10:53;;;;;;;0.85;0.85;;;;;;;14.16;40.99;98907.00;5527657;26;19998;-70
2024/04/18 13:13:25;;;;;;;0.60;0.60;;;;;;;14.08;39.55;98910.59;5529697;25;20014;-68
2024/04/18 13:16:09;;;;;;;0.65;0.60;;;;;;;14.12;40.31;98908.81;5529793;26;20073;-68
2024/04/18 13:18:40;;;;;;;0.60;0.60;;;;;;;14.13;40.75;98908.75;5529403;26;19997;-66
2024/04/18 13:21:31;;;;;;;0.45;0.45;;;;;;;14.09;40.66;98921.72;5529369;25;20002;-67
2024/04/18 13:24:01;;;;;;;0.50;0.50;;;;;;;13.96;39.80;98915.25;5529373;25;20053;-68
2024/04/18 13:26:51;;;;;;;0.63;0.63;;;;;;;14.02;40.36;98925.34;5527549;26;20002;-69
2024/04/18 13:29:20;;;;;;;0.40;0.40;;;;;;;13.95;40.60;98913.56;5529443;25;20416;-68
2024/04/18 13:31:53;;;;;;;0.43;0.43;;;;;;;13.99;40.77;98920.28;5529186;25;20057;-69
2024/04/18 13:34:24;;;;;;;0.70;0.70;;;;;;;14.12;41.03;98926.78;5529461;26;20074;-69
2024/04/18 13:36:55;;;;;;;6.93;1.48;;;;;;;14.59;41.55;98933.16;5527413;26;20006;-69
2024/04/18 13:39:44;;;;;;;0.40;0.40;;;;;;;15.00;41.64;98914.78;5529237;25;20005;-68
2024/04/18 13:42:15;;;;;;;0.45;0.45;;;;;;;15.42;41.64;98922.91;5527295;26;20008;-69
2024/04/18 13:44:56;;;;;;;0.40;0.40;;;;;;;15.30;40.45;98924.13;5527537;26;19998;-69
2024/04/18 13:47:50;;;;;;;0.65;0.63;;;;;;;15.01;39.81;98925.91;5529208;25;20015;-70
2024/04/18 13:50:41;;;;;;;0.57;0.57;;;;;;;14.37;40.24;98871.31;5528861;26;20033;-68
2024/04/18 13:53:11;;;;;;;0.40;0.40;;;;;;;14.33;39.92;98935.63;5529157;26;19997;-68
2024/04/18 13:55:50;;;;;;;1.30;0.50;;;;;;;14.25;40.91;98907.59;5529191;25;20148;-69
2024/04/18 13:58:22;;;;;;;0.77;0.77;;;;;;;14.38;41.19;98933.78;5529085;26;20066;-68
2024/04/18 14:01:01;;;;;;;0.85;0.45;;;;;;;14.21;41.27;98905.97;5527114;26;20343;-69
2024/04/18 14:03:35;;;;;;;0.88;0.88;;;;;;;14.17;40.62;98940.31;5528831;25;19998;-69
2024/04/18 14:06:09;;;;;;;0.40;0.40;;;;;;;13.91;40.00;98933.34;5528671;25;20345;-69
2024/04/18 14:08:40;;;;;;;0.80;0.80;;;;;;;13.76;40.32;98940.56;5528855;25;20343;-68
2024/04/18 14:11:22;;;;;;;0.50;0.50;;;;;;;13.87;40.31;98936.00;5529173;26;20002;-68
2024/04/18 14:14:04;;;;;;;0.73;0.73;;;;;;;13.97;41.42;98943.41;5528968;26;20008;-68
2024/04/18 14:19:35;;;;;;;0.50;0.50;;;;;;;14.16;40.61;98946.31;5528605;26;20008;-69
2024/04/18 14:22:07;;;;;;;0.40;0.40;;;;;;;14.06;40.67;98938.03;5528680;25;20069;-68
2024/04/18 14:24:39;;;;;;;0.50;0.50;;;;;;;13.94;40.68;98932.41;5558207;25;19997;-68
2024/04/18 14:27:19;;;;;;;0.85;0.50;;;;;;;13.85;40.79;98930.06;5528602;25;20462;-68
2024/04/18 14:30:01;;;;;;;0.60;0.60;;;;;;;13.95;40.35;98934.91;5528781;26;20005;-68
2024/04/18 14:32:37;;;;;;;0.40;0.40;;;;;;;14.04;39.80;98938.94;5528291;25;20073;-70
2024/04/18 14:35:11;;;;;;;0.40;0.40;;;;;;;14.17;39.76;98940.31;5526624;26;20424;-68